createdAt,value
2022-12-11T00:17:14.167Z,-0.31
2022-12-11T00:37:14.206Z,-0.37
2022-12-11T00:57:14.132Z,-0.49
2022-12-11T01:17:14.127Z,-0.58
2022-12-11T01:37:14.152Z,-0.51
2022-12-11T01:57:14.079Z,-0.44
2022-12-11T02:17:14.047Z,-0.38
2022-12-11T02:37:14.028Z,-0.34
2022-12-11T03:17:13.994Z,-0.21
2022-12-11T03:37:13.965Z,-0.19
2022-12-11T03:57:13.949Z,-0.13
2022-12-11T04:17:13.945Z,-0.07
2022-12-11T04:37:13.904Z,-0.05
2022-12-11T04:57:13.892Z,-0.05
2022-12-11T05:17:13.855Z,-0.06
2022-12-11T05:37:13.849Z,-0.07
2022-12-11T05:57:13.825Z,-0.05
2022-12-11T06:17:13.821Z,0
2022-12-11T06:37:13.782Z,0.06
2022-12-11T06:57:13.770Z,0.07
2022-12-11T07:17:13.746Z,0.1
2022-12-11T07:37:13.724Z,0.13
2022-12-11T08:17:13.694Z,0.15
2022-12-11T08:37:13.664Z,0.23
2022-12-11T08:57:13.640Z,0.3
2022-12-11T09:57:13.575Z,0.52
2022-12-11T10:17:13.555Z,0.56
2022-12-11T10:37:13.524Z,0.55
2022-12-11T10:57:13.504Z,0.59
2022-12-11T11:17:13.514Z,0.64
2022-12-11T11:37:13.469Z,0.68
2022-12-11T11:57:13.459Z,0.71
2022-12-11T12:17:13.488Z,0.8
2022-12-11T12:37:13.439Z,0.85
2022-12-11T12:57:13.385Z,0.87
2022-12-11T13:17:13.364Z,0.86
2022-12-11T13:37:13.342Z,0.81
2022-12-11T13:57:13.323Z,0.82
2022-12-11T14:17:13.285Z,0.8
2022-12-11T14:57:13.298Z,0.74
2022-12-11T15:17:13.223Z,0.73
2022-12-11T15:37:13.206Z,0.74
2022-12-11T15:57:13.186Z,0.76
2022-12-11T16:17:13.170Z,0.7
2022-12-11T16:37:13.139Z,0.56
2022-12-11T16:57:13.113Z,0.49
2022-12-11T17:17:13.106Z,0.38
2022-12-11T17:37:13.071Z,0.36
2022-12-11T17:57:13.061Z,0.35
2022-12-11T18:17:13.061Z,0.36
2022-12-11T18:37:13.007Z,0.3
2022-12-11T18:57:12.977Z,0.27
2022-12-11T19:17:12.982Z,0.27
2022-12-11T19:37:12.948Z,0.3
2022-12-11T19:57:12.955Z,0.34
2022-12-11T20:17:14.155Z,0.3
2022-12-11T20:37:13.053Z,0.26
2022-12-11T20:57:12.855Z,0.22
2022-12-11T21:17:12.839Z,0.16
2022-12-11T21:37:12.824Z,0.14
2022-12-11T21:57:12.793Z,0.15
2022-12-11T22:17:12.789Z,0.12
2022-12-11T22:37:12.766Z,0.13
2022-12-11T22:57:12.731Z,0.15
2022-12-11T23:17:12.775Z,0.11
2022-12-11T23:37:12.701Z,0.05
2022-12-11T23:57:12.679Z,0.01
